createdAt,value
2023-04-19T00:02:03.068Z,5.23
2023-04-19T00:04:31.274Z,5.18
2023-04-19T00:06:58.517Z,5.19
2023-04-19T00:09:24.946Z,5.17
2023-04-19T00:11:52.080Z,5.24
2023-04-19T00:14:18.652Z,5.25
2023-04-19T00:16:46.373Z,5.23
2023-04-19T00:19:12.775Z,5.30
2023-04-19T00:21:39.150Z,5.28
2023-04-19T00:24:05.672Z,5.27
2023-04-19T00:26:32.113Z,5.27
2023-04-19T00:29:01.145Z,5.29
2023-04-19T00:31:27.608Z,5.31
2023-04-19T00:33:54.085Z,5.36
2023-04-19T00:36:20.537Z,5.32
2023-04-19T00:38:46.874Z,5.33
2023-04-19T00:41:13.244Z,5.32
2023-04-19T00:43:39.745Z,5.30
2023-04-19T00:46:06.138Z,5.40
2023-04-19T00:48:32.673Z,5.38
2023-04-19T00:50:59.030Z,5.34
2023-04-19T00:53:25.344Z,5.43
2023-04-19T00:55:51.798Z,5.36
2023-04-19T00:58:18.221Z,5.33
2023-04-19T01:00:44.569Z,5.45
2023-04-19T01:03:11.457Z,5.40
2023-04-19T01:05:38.086Z,5.42
2023-04-19T01:08:04.620Z,5.36
2023-04-19T01:10:31.066Z,5.37
2023-04-19T01:12:57.549Z,5.34
2023-04-19T01:15:24.027Z,5.31
2023-04-19T01:17:50.475Z,5.31
2023-04-19T01:20:16.881Z,5.26
2023-04-19T01:22:43.291Z,5.17
2023-04-19T01:25:10.324Z,5.03
2023-04-19T01:27:39.290Z,5.04
2023-04-19T01:30:06.242Z,5.05
2023-04-19T01:32:32.740Z,5.02
2023-04-19T01:34:59.239Z,4.96
2023-04-19T01:37:25.716Z,4.92
2023-04-19T01:39:52.129Z,4.88
2023-04-19T01:42:18.486Z,4.76
2023-04-19T01:44:44.883Z,4.78
2023-04-19T01:47:11.414Z,4.76
2023-04-19T01:49:37.874Z,4.76
2023-04-19T01:52:04.265Z,4.57
2023-04-19T01:54:32.015Z,4.65
2023-04-19T01:56:58.480Z,4.61
2023-04-19T01:59:27.446Z,4.52
2023-04-19T02:01:53.875Z,4.58
2023-04-19T02:04:20.586Z,4.61
2023-04-19T02:06:46.995Z,4.42
2023-04-19T02:09:13.342Z,4.43
2023-04-19T02:11:39.921Z,4.40
2023-04-19T02:14:06.266Z,4.38
2023-04-19T02:16:35.638Z,4.33
2023-04-19T02:19:02.525Z,4.31
2023-04-19T02:21:28.965Z,4.37
2023-04-19T02:23:55.369Z,4.37
2023-04-19T02:26:22.188Z,4.35
2023-04-19T02:28:48.512Z,4.33
2023-04-19T02:31:14.899Z,4.33
2023-04-19T02:33:41.334Z,4.37
2023-04-19T02:36:07.952Z,4.26
2023-04-19T02:38:34.316Z,4.38
2023-04-19T02:41:01.677Z,4.37
2023-04-19T02:43:28.171Z,4.36
2023-04-19T02:45:54.591Z,4.27
2023-04-19T02:48:21.004Z,4.28
2023-04-19T02:50:47.343Z,4.30
2023-04-19T02:53:13.672Z,4.30
2023-04-19T02:55:41.431Z,4.31
2023-04-19T02:58:07.797Z,4.17
2023-04-19T03:00:34.195Z,4.24
2023-04-19T03:03:02.815Z,4.25
2023-04-19T03:05:29.330Z,4.21
2023-04-19T03:07:57.243Z,4.16
2023-04-19T03:10:23.635Z,4.14
2023-04-19T03:12:50.009Z,4.17
2023-04-19T03:15:16.520Z,4.29
2023-04-19T03:17:42.949Z,4.24
2023-04-19T03:20:12.233Z,4.27
2023-04-19T03:22:38.875Z,4.22
2023-04-19T03:25:05.707Z,4.20
2023-04-19T03:27:33.276Z,4.13
2023-04-19T03:29:59.720Z,4.13
2023-04-19T03:32:26.157Z,4.21
2023-04-19T03:34:52.500Z,4.21
2023-04-19T03:37:18.893Z,4.23
2023-04-19T03:39:45.283Z,4.25
2023-04-19T03:42:11.628Z,4.23
2023-04-19T03:44:38.192Z,4.23
2023-04-19T03:47:04.633Z,4.23
2023-04-19T03:49:31.518Z,4.31
2023-04-19T03:51:57.929Z,4.23
2023-04-19T03:54:24.362Z,4.26
2023-04-19T03:56:50.733Z,4.30
2023-04-19T03:59:18.457Z,4.29
2023-04-19T04:01:44.926Z,4.25
2023-04-19T04:04:12.620Z,4.33
2023-04-19T04:06:40.522Z,4.40
2023-04-19T04:09:08.573Z,4.41
2023-04-19T04:11:34.974Z,4.56
2023-04-19T04:14:03.366Z,4.63
2023-04-19T04:16:29.817Z,4.68
2023-04-19T04:18:56.196Z,4.70
2023-04-19T04:21:24.198Z,4.77
2023-04-19T04:23:50.637Z,4.84
2023-04-19T04:26:18.011Z,4.89
2023-04-19T04:28:44.370Z,4.90
2023-04-19T04:31:12.911Z,4.97
2023-04-19T04:33:39.378Z,5.01
2023-04-19T04:36:07.174Z,5.02
2023-04-19T04:38:34.992Z,5.05
2023-04-19T04:41:01.401Z,5.10
2023-04-19T04:43:29.762Z,5.18
2023-04-19T04:45:58.059Z,5.21
2023-04-19T04:48:24.741Z,5.23
2023-04-19T04:50:51.177Z,5.25
2023-04-19T04:53:17.625Z,5.28
2023-04-19T04:55:44.031Z,5.32
2023-04-19T04:58:10.622Z,5.34
2023-04-19T05:00:37.004Z,5.33
2023-04-19T05:03:03.741Z,5.35
2023-04-19T05:05:30.358Z,5.31
2023-04-19T05:07:56.779Z,5.32
2023-04-19T05:10:23.340Z,5.31
2023-04-19T05:12:49.716Z,5.33
2023-04-19T05:15:16.086Z,5.29
2023-04-19T05:17:43.418Z,5.26
2023-04-19T05:20:10.022Z,5.32
2023-04-19T05:22:37.117Z,5.34
2023-04-19T05:25:03.776Z,5.33
2023-04-19T05:27:30.098Z,5.41
2023-04-19T05:29:56.763Z,5.39
2023-04-19T05:32:25.448Z,5.49
2023-04-19T05:34:51.863Z,5.48
2023-04-19T05:37:18.260Z,5.51
2023-04-19T05:39:44.989Z,5.51
2023-04-19T05:42:11.465Z,5.56
2023-04-19T05:44:37.841Z,5.66
2023-04-19T05:47:04.223Z,5.69
2023-04-19T05:49:30.631Z,5.72
2023-04-19T05:51:57.209Z,5.80
2023-04-19T05:54:23.665Z,6.02
2023-04-19T05:56:50.004Z,6.21
2023-04-19T05:59:16.490Z,6.37
2023-04-19T06:01:42.978Z,6.61
2023-04-19T06:04:09.544Z,6.51
2023-04-19T06:06:38.088Z,6.44
2023-04-19T06:09:04.747Z,6.64
2023-04-19T06:11:38.863Z,6.68
2023-04-19T06:14:12.352Z,6.41
2023-04-19T06:16:38.762Z,6.44
2023-04-19T06:19:05.376Z,6.28
2023-04-19T06:21:33.033Z,6.39
2023-04-19T06:23:59.603Z,6.51
2023-04-19T06:26:26.118Z,6.54
2023-04-19T06:28:52.726Z,6.43
2023-04-19T06:31:19.953Z,6.42
2023-04-19T06:33:46.812Z,6.27
2023-04-19T06:36:13.388Z,6.31
2023-04-19T06:38:41.743Z,6.13
2023-04-19T06:41:09.213Z,6.02
2023-04-19T06:43:35.766Z,6.09
2023-04-19T06:46:04.860Z,6.15
2023-04-19T06:48:31.338Z,6.13
2023-04-19T06:50:57.817Z,6.11
2023-04-19T06:53:24.184Z,6.23
2023-04-19T06:55:53.547Z,6.49
2023-04-19T06:58:22.770Z,6.40
2023-04-19T07:00:49.136Z,6.27
2023-04-19T07:03:16.016Z,6.38
2023-04-19T07:05:42.496Z,6.40
2023-04-19T07:08:11.217Z,6.34
2023-04-19T07:10:39.878Z,6.45
2023-04-19T07:13:06.384Z,6.61
2023-04-19T07:15:32.722Z,6.54
2023-04-19T07:17:59.108Z,6.73
2023-04-19T07:20:25.906Z,6.85
2023-04-19T07:22:52.283Z,7.31
2023-04-19T07:25:18.860Z,7.13
2023-04-19T07:27:45.411Z,7.43
2023-04-19T07:30:12.882Z,7.93
2023-04-19T07:32:42.151Z,7.84
2023-04-19T07:35:08.974Z,8.04
2023-04-19T07:37:37.680Z,8.35
2023-04-19T07:40:05.373Z,7.83
2023-04-19T07:42:31.814Z,8.25
2023-04-19T07:45:03.556Z,8.58
2023-04-19T07:47:31.245Z,7.59
2023-04-19T07:49:57.701Z,7.41
2023-04-19T07:52:24.596Z,7.57
2023-04-19T07:54:50.967Z,7.77
2023-04-19T07:57:17.389Z,8.38
2023-04-19T07:59:44.860Z,7.64
2023-04-19T08:02:11.400Z,7.44
2023-04-19T08:04:38.169Z,7.17
2023-04-19T08:07:04.893Z,7.27
2023-04-19T08:09:31.499Z,7.41
2023-04-19T08:11:58.023Z,7.10
2023-04-19T08:14:37.771Z,7.21
2023-04-19T08:17:25.575Z,7.18
2023-04-19T08:19:53.913Z,6.87
2023-04-19T08:22:21.321Z,6.69
2023-04-19T08:24:49.340Z,6.58
2023-04-19T08:27:17.363Z,6.46
2023-04-19T08:29:43.861Z,6.38
2023-04-19T08:32:11.518Z,6.20
2023-04-19T08:34:41.043Z,6.10
2023-04-19T08:37:07.502Z,6.33
2023-04-19T08:39:36.948Z,6.20
2023-04-19T08:42:07.489Z,6.17
2023-04-19T08:44:49.252Z,6.07
2023-04-19T08:47:31.284Z,5.97
2023-04-19T08:50:13.954Z,5.76
2023-04-19T08:52:55.003Z,5.61
2023-04-19T08:55:25.624Z,5.58
2023-04-19T08:57:52.610Z,5.54
2023-04-19T09:00:19.248Z,5.60
2023-04-19T09:02:49.810Z,5.50
2023-04-19T09:05:18.162Z,5.60
2023-04-19T09:07:45.408Z,5.77
2023-04-19T09:10:13.322Z,5.64
2023-04-19T09:12:40.103Z,5.57
2023-04-19T09:15:09.009Z,5.65
2023-04-19T09:17:38.486Z,5.50
2023-04-19T09:20:08.139Z,5.55
2023-04-19T09:22:37.082Z,5.60
2023-04-19T09:27:36.296Z,5.21
2023-04-19T09:30:03.558Z,5.04
2023-04-19T09:32:42.887Z,5.04
2023-04-19T09:35:09.417Z,4.99
2023-04-19T09:40:23.902Z,4.78
2023-04-19T09:48:05.805Z,4.65
2023-04-19T09:50:33.823Z,4.70
2023-04-19T09:53:05.321Z,4.61
2023-04-19T09:55:39.153Z,4.69
2023-04-19T09:58:11.439Z,4.59
2023-04-19T10:00:45.670Z,4.50
2023-04-19T10:03:15.549Z,4.53
2023-04-19T10:05:42.364Z,4.43
2023-04-19T10:08:09.448Z,4.62
2023-04-19T10:10:42.068Z,4.38
2023-04-19T10:13:20.249Z,4.41
2023-04-19T10:15:54.021Z,4.39
2023-04-19T10:18:21.890Z,4.27
2023-04-19T10:20:51.362Z,4.28
2023-04-19T10:23:17.771Z,4.23
2023-04-19T10:25:47.712Z,4.24
2023-04-19T10:28:19.422Z,4.25
2023-04-19T10:31:04.542Z,4.23
2023-04-19T10:33:31.903Z,4.17
2023-04-19T10:35:58.877Z,4.19
2023-04-19T10:38:43.142Z,4.08
2023-04-19T10:41:16.922Z,4.13
2023-04-19T10:43:47.648Z,4.26
2023-04-19T10:46:15.161Z,4.13
2023-04-19T10:48:53.519Z,4.27
2023-04-19T10:51:21.252Z,4.15
2023-04-19T10:53:51.556Z,4.13
2023-04-19T10:56:19.199Z,4.06
2023-04-19T10:59:13.449Z,4.02
2023-04-19T11:01:42.360Z,4.25
2023-04-19T11:04:12.823Z,4.20
2023-04-19T11:06:57.187Z,4.24
2023-04-19T11:09:26.651Z,4.22
2023-04-19T11:11:54.005Z,4.30
2023-04-19T11:14:20.595Z,4.33
2023-04-19T11:16:47.104Z,4.44
2023-04-19T11:19:17.031Z,4.52
2023-04-19T11:21:47.436Z,4.58
2023-04-19T11:24:16.038Z,4.63
2023-04-19T11:26:42.837Z,4.71
2023-04-19T11:29:10.787Z,4.91
2023-04-19T11:31:38.293Z,4.76
2023-04-19T11:34:04.902Z,4.91
2023-04-19T11:36:32.128Z,5.00
2023-04-19T11:38:58.543Z,4.99
2023-04-19T11:41:24.895Z,5.08
2023-04-19T11:43:51.294Z,5.05
2023-04-19T11:46:17.706Z,5.13
2023-04-19T11:48:53.459Z,5.14
2023-04-19T11:51:20.368Z,5.17
2023-04-19T11:53:46.736Z,5.25
2023-04-19T11:56:15.257Z,5.28
2023-04-19T11:58:45.468Z,5.40
2023-04-19T12:01:14.678Z,5.50
2023-04-19T12:03:45.091Z,5.53
2023-04-19T12:06:12.570Z,5.68
2023-04-19T12:08:40.174Z,5.69
2023-04-19T12:11:06.767Z,5.83
2023-04-19T12:13:33.285Z,5.94
2023-04-19T12:16:02.682Z,6.00
2023-04-19T12:18:41.852Z,6.14
2023-04-19T12:21:08.197Z,6.25
2023-04-19T12:23:34.725Z,6.35
2023-04-19T12:26:05.209Z,6.40
2023-04-19T12:28:31.860Z,6.66
2023-04-19T12:30:58.346Z,6.85
2023-04-19T12:33:24.724Z,6.69
2023-04-19T12:35:51.070Z,6.75
2023-04-19T12:38:17.450Z,6.93
2023-04-19T12:40:43.817Z,6.85
2023-04-19T12:43:10.259Z,6.78
2023-04-19T12:45:36.671Z,6.77
2023-04-19T12:48:03.373Z,6.68
2023-04-19T12:50:29.755Z,6.66
2023-04-19T12:52:56.080Z,6.85
2023-04-19T12:55:25.789Z,6.94
2023-04-19T12:57:52.175Z,7.35
2023-04-19T13:00:19.319Z,7.49
2023-04-19T13:02:48.308Z,7.71
2023-04-19T13:05:16.086Z,8.06
2023-04-19T13:07:42.478Z,7.86
2023-04-19T13:10:10.078Z,7.68
2023-04-19T13:12:36.540Z,7.71
2023-04-19T13:15:09.594Z,7.61
2023-04-19T13:17:38.832Z,7.46
2023-04-19T13:20:09.528Z,7.34
2023-04-19T13:22:36.073Z,7.37
2023-04-19T13:25:02.942Z,7.31
2023-04-19T13:27:29.464Z,7.37
2023-04-19T13:29:56.207Z,7.32
2023-04-19T13:32:23.868Z,7.38
2023-04-19T13:34:50.400Z,7.47
2023-04-19T13:37:17.880Z,7.35
2023-04-19T13:39:44.469Z,7.31
2023-04-19T13:42:14.465Z,7.27
2023-04-19T13:44:41.364Z,7.42
2023-04-19T13:47:07.923Z,7.41
2023-04-19T13:49:34.382Z,7.63
2023-04-19T13:52:00.793Z,7.64
2023-04-19T13:54:28.262Z,7.70
2023-04-19T13:56:54.610Z,7.60
2023-04-19T13:59:21.146Z,7.58
2023-04-19T14:01:47.540Z,7.84
2023-04-19T14:04:14.142Z,8.38
2023-04-19T14:06:40.744Z,9.07
2023-04-19T14:09:07.521Z,8.65
2023-04-19T14:11:33.889Z,8.53
2023-04-19T14:14:00.581Z,8.39
2023-04-19T14:16:27.489Z,8.39
2023-04-19T14:18:53.924Z,8.49
2023-04-19T14:21:20.421Z,8.76
2023-04-19T14:23:46.851Z,8.85
2023-04-19T14:26:13.395Z,9.03
2023-04-19T14:28:39.721Z,9.34
2023-04-19T14:31:06.355Z,9.38
2023-04-19T14:33:32.728Z,9.34
2023-04-19T14:35:59.148Z,9.66
2023-04-19T14:38:25.578Z,9.53
2023-04-19T14:40:51.988Z,9.14
2023-04-19T14:43:18.342Z,9.27
2023-04-19T14:45:44.790Z,9.19
2023-04-19T14:48:11.201Z,9.36
2023-04-19T14:50:37.558Z,9.56
2023-04-19T14:53:04.024Z,10.29
2023-04-19T14:55:30.387Z,10.49
2023-04-19T14:57:56.715Z,10.64
2023-04-19T15:00:23.175Z,10.40
2023-04-19T15:02:49.789Z,10.27
2023-04-19T15:05:16.527Z,10.41
2023-04-19T15:07:43.125Z,9.93
2023-04-19T15:10:09.785Z,9.68
2023-04-19T15:12:36.253Z,9.68
2023-04-19T15:15:03.197Z,9.99
2023-04-19T15:17:29.574Z,10.10
2023-04-19T15:19:56.008Z,9.66
2023-04-19T15:22:22.451Z,10.07
2023-04-19T15:24:48.876Z,10.47
2023-04-19T15:27:15.363Z,10.87
2023-04-19T15:29:41.871Z,10.33
2023-04-19T15:32:08.203Z,10.45
2023-04-19T15:34:34.588Z,10.09
2023-04-19T15:37:02.272Z,10.12
2023-04-19T15:39:28.611Z,9.83
2023-04-19T15:41:54.965Z,10.20
2023-04-19T15:44:22.684Z,9.81
2023-04-19T15:46:49.110Z,9.87
2023-04-19T15:49:15.879Z,9.39
2023-04-19T15:51:42.504Z,10.18
2023-04-19T15:54:09.723Z,9.83
2023-04-19T15:56:36.192Z,9.45
2023-04-19T15:59:02.594Z,9.32
2023-04-19T16:01:29.034Z,9.09
2023-04-19T16:03:55.619Z,8.99
2023-04-19T16:06:23.177Z,9.03
2023-04-19T16:08:49.820Z,8.89
2023-04-19T16:11:16.293Z,8.86
2023-04-19T16:13:42.751Z,8.75
2023-04-19T16:16:09.133Z,8.67
2023-04-19T16:18:35.930Z,8.56
2023-04-19T16:21:02.367Z,8.69
2023-04-19T16:23:29.479Z,8.75
2023-04-19T16:25:56.794Z,8.65
2023-04-19T16:28:23.483Z,8.62
2023-04-19T16:30:53.068Z,8.44
2023-04-19T16:34:06.691Z,8.43
2023-04-19T16:36:35.264Z,8.34
2023-04-19T16:39:01.777Z,8.43
2023-04-19T16:41:28.355Z,8.34
2023-04-19T16:43:56.790Z,8.32
2023-04-19T16:46:23.319Z,8.33
2023-04-19T16:48:49.849Z,8.32
2023-04-19T16:51:16.290Z,8.18
2023-04-19T16:53:48.210Z,8.23
2023-04-19T16:56:16.335Z,8.08
2023-04-19T16:58:42.663Z,8.17
2023-04-19T17:01:09.178Z,8.20
2023-04-19T17:03:36.066Z,8.13
2023-04-19T17:06:02.646Z,8.07
2023-04-19T17:08:29.147Z,7.99
2023-04-19T17:10:55.709Z,7.99
2023-04-19T17:13:22.117Z,7.84
2023-04-19T17:15:48.678Z,7.93
2023-04-19T17:18:15.137Z,7.92
2023-04-19T17:20:41.787Z,7.83
2023-04-19T17:23:08.131Z,8.21
2023-04-19T17:25:34.796Z,8.13
2023-04-19T17:28:01.434Z,8.05
2023-04-19T17:30:30.338Z,7.91
2023-04-19T17:32:56.805Z,7.97
2023-04-19T17:35:23.566Z,7.85
2023-04-19T17:37:50.047Z,7.72
2023-04-19T17:40:16.444Z,7.72
2023-04-19T17:42:42.781Z,7.72
2023-04-19T17:45:11.105Z,7.75
2023-04-19T17:47:38.197Z,7.84
2023-04-19T17:50:06.923Z,7.82
2023-04-19T17:52:33.671Z,7.82
2023-04-19T17:55:00.453Z,7.79
2023-04-19T17:57:29.060Z,7.93
2023-04-19T17:59:55.679Z,8.07
2023-04-19T18:02:22.535Z,8.01
2023-04-19T18:04:49.167Z,7.99
2023-04-19T18:07:17.105Z,8.16
2023-04-19T18:09:43.669Z,8.09
2023-04-19T18:12:10.069Z,7.96
2023-04-19T18:14:36.407Z,7.93
2023-04-19T18:17:05.500Z,7.84
2023-04-19T18:19:31.927Z,7.81
2023-04-19T18:21:58.321Z,7.77
2023-04-19T18:24:25.015Z,7.84
2023-04-19T18:26:52.765Z,7.81
2023-04-19T18:29:37.492Z,7.67
2023-04-19T18:32:04.032Z,7.61
2023-04-19T18:34:30.745Z,7.56
2023-04-19T18:36:59.225Z,7.56
2023-04-19T18:39:26.093Z,7.54
2023-04-19T18:41:52.505Z,7.56
2023-04-19T18:44:44.157Z,7.56
2023-04-19T18:47:08.929Z,7.60
2023-04-19T18:49:35.347Z,7.59
2023-04-19T18:52:01.773Z,7.55
2023-04-19T18:54:28.128Z,7.62
2023-04-19T18:59:23.960Z,7.58
2023-04-19T19:01:51.614Z,7.55
2023-04-19T19:04:42.659Z,7.57
2023-04-19T19:07:27.409Z,7.55
2023-04-19T19:09:56.534Z,7.51
2023-04-19T19:12:23.361Z,7.51
2023-04-19T19:14:49.865Z,7.43
2023-04-19T19:17:16.299Z,7.35
2023-04-19T19:19:42.634Z,7.33
2023-04-19T19:22:22.357Z,7.30
2023-04-19T19:24:51.950Z,7.28
2023-04-19T19:27:18.287Z,7.30
2023-04-19T19:29:45.376Z,7.32
2023-04-19T19:32:18.976Z,7.36
2023-04-19T19:34:54.902Z,7.32
2023-04-19T19:37:22.655Z,7.31
2023-04-19T19:39:49.067Z,7.37
2023-04-19T19:42:16.130Z,7.32
2023-04-19T19:44:42.764Z,7.37
2023-04-19T19:47:10.531Z,7.32
2023-04-19T19:49:51.955Z,7.38
2023-04-19T19:52:23.893Z,7.39
2023-04-19T19:54:50.241Z,7.33
2023-04-19T19:59:51.622Z,7.29
2023-04-19T20:02:22.129Z,7.30
2023-04-19T20:04:48.943Z,7.26
2023-04-19T20:09:45.099Z,7.22
2023-04-19T20:12:13.433Z,7.24
2023-04-19T20:14:40.341Z,7.18
2023-04-19T20:17:06.703Z,7.20
2023-04-19T20:19:33.111Z,7.14
2023-04-19T20:22:00.450Z,7.09
2023-04-19T20:24:26.944Z,7.11
2023-04-19T20:26:53.369Z,7.14
2023-04-19T20:29:19.741Z,7.10
2023-04-19T20:31:46.116Z,7.06
2023-04-19T20:34:12.631Z,7.11
2023-04-19T20:36:40.397Z,7.18
2023-04-19T20:39:09.650Z,7.21
2023-04-19T20:41:36.315Z,7.17
2023-04-19T20:44:03.069Z,7.18
2023-04-19T20:46:29.720Z,7.23
2023-04-19T20:48:56.439Z,7.24
2023-04-19T20:51:22.859Z,7.31
2023-04-19T20:53:51.346Z,7.35
2023-04-19T20:56:17.738Z,7.40
2023-04-19T20:58:46.730Z,7.44
2023-04-19T21:01:17.119Z,7.45
2023-04-19T21:03:44.255Z,7.40
2023-04-19T21:06:10.868Z,7.38
2023-04-19T21:08:37.288Z,7.31
2023-04-19T21:11:03.724Z,7.29
2023-04-19T21:13:31.125Z,7.22
2023-04-19T21:15:57.582Z,7.21
2023-04-19T21:18:25.472Z,7.18
2023-04-19T21:20:52.969Z,7.16
2023-04-19T21:23:19.392Z,7.18
2023-04-19T21:25:45.916Z,7.18
2023-04-19T21:28:12.356Z,7.19
2023-04-19T21:30:40.807Z,7.27
2023-04-19T21:33:08.097Z,7.30
2023-04-19T21:35:34.885Z,7.31
2023-04-19T21:38:01.216Z,7.25
2023-04-19T21:40:28.018Z,7.31
2023-04-19T21:42:54.364Z,7.31
2023-04-19T21:45:20.738Z,7.31
2023-04-19T21:47:47.205Z,7.31
2023-04-19T21:50:13.629Z,7.38
2023-04-19T21:52:40.025Z,7.44
2023-04-19T21:55:06.779Z,7.43
2023-04-19T21:57:33.193Z,7.44
2023-04-19T21:59:59.519Z,7.41
2023-04-19T22:02:26.016Z,7.44
2023-04-19T22:04:53.777Z,7.41
2023-04-19T22:07:20.730Z,7.44
2023-04-19T22:09:48.142Z,7.42
2023-04-19T22:12:14.636Z,7.41
2023-04-19T22:14:41.154Z,7.47
2023-04-19T22:17:09.004Z,7.40
2023-04-19T22:19:35.432Z,7.34
2023-04-19T22:22:01.793Z,7.40
2023-04-19T22:24:28.216Z,7.42
2023-04-19T22:26:54.614Z,7.46
2023-04-19T22:29:21.062Z,7.44
2023-04-19T22:31:47.613Z,7.38
2023-04-19T22:34:14.005Z,7.42
2023-04-19T22:36:40.351Z,7.42
2023-04-19T22:39:06.946Z,7.42
2023-04-19T22:41:33.340Z,7.42
2023-04-19T22:44:00.407Z,7.41
2023-04-19T22:46:27.291Z,7.44
2023-04-19T22:48:53.787Z,7.48
2023-04-19T22:51:20.180Z,7.46
2023-04-19T22:53:46.626Z,7.44
2023-04-19T22:56:13.088Z,7.42
2023-04-19T22:58:41.089Z,7.39
2023-04-19T23:01:07.508Z,7.33
2023-04-19T23:03:33.889Z,7.31
2023-04-19T23:06:04.375Z,7.34
2023-04-19T23:08:30.945Z,7.30
2023-04-19T23:10:57.475Z,7.32
2023-04-19T23:13:23.975Z,7.31
2023-04-19T23:15:50.572Z,7.30
2023-04-19T23:18:17.563Z,7.25
2023-04-19T23:20:43.969Z,7.23
2023-04-19T23:23:10.395Z,7.20
2023-04-19T23:25:36.781Z,7.23
2023-04-19T23:28:03.193Z,7.26
2023-04-19T23:30:31.961Z,7.25
2023-04-19T23:32:58.404Z,7.24
2023-04-19T23:35:24.859Z,7.19
2023-04-19T23:37:51.452Z,7.17
2023-04-19T23:40:17.812Z,7.17
2023-04-19T23:42:44.259Z,7.16
2023-04-19T23:45:13.842Z,7.16
2023-04-19T23:47:40.425Z,7.24
2023-04-19T23:50:07.089Z,7.19
2023-04-19T23:52:33.726Z,7.14
2023-04-19T23:55:00.468Z,7.18
2023-04-19T23:57:26.811Z,7.21
2023-04-19T23:59:53.172Z,7.14
